sensor_id;sensor_type;location;lat;lon;timestamp;P1;durP1;ratioP1;P2;durP2;ratioP2
70253;SDS011;57649;42.968;1.608;2023-08-20T00:01:19;9.48;;;6.50;;
70253;SDS011;57649;42.968;1.608;2023-08-20T00:03:49;7.20;;;6.30;;
70253;SDS011;57649;42.968;1.608;2023-08-20T00:06:15;8.15;;;6.85;;
70253;SDS011;57649;42.968;1.608;2023-08-20T00:08:41;10.07;;;6.03;;
70253;SDS011;57649;42.968;1.608;2023-08-20T00:11:07;7.90;;;6.13;;
70253;SDS011;57649;42.968;1.608;2023-08-20T00:13:33;8.82;;;6.40;;
70253;SDS011;57649;42.968;1.608;2023-08-20T00:15:58;9.10;;;6.75;;
70253;SDS011;57649;42.968;1.608;2023-08-20T00:18:24;10.45;;;6.32;;
70253;SDS011;57649;42.968;1.608;2023-08-20T00:20:50;7.55;;;5.80;;
70253;SDS011;57649;42.968;1.608;2023-08-20T00:23:16;11.60;;;6.60;;
70253;SDS011;57649;42.968;1.608;2023-08-20T00:25:41;10.85;;;6.85;;
70253;SDS011;57649;42.968;1.608;2023-08-20T00:28:09;11.95;;;6.80;;
70253;SDS011;57649;42.968;1.608;2023-08-20T00:30:34;9.88;;;6.80;;
70253;SDS011;57649;42.968;1.608;2023-08-20T00:32:59;7.22;;;6.53;;
70253;SDS011;57649;42.968;1.608;2023-08-20T00:35:25;7.07;;;6.38;;
70253;SDS011;57649;42.968;1.608;2023-08-20T00:37:50;9.23;;;6.70;;
70253;SDS011;57649;42.968;1.608;2023-08-20T00:40:16;13.63;;;6.60;;
70253;SDS011;57649;42.968;1.608;2023-08-20T00:42:41;9.82;;;7.07;;
70253;SDS011;57649;42.968;1.608;2023-08-20T00:45:07;8.32;;;6.28;;
70253;SDS011;57649;42.968;1.608;2023-08-20T00:47:33;9.80;;;6.45;;
70253;SDS011;57649;42.968;1.608;2023-08-20T00:50:00;9.90;;;6.10;;
70253;SDS011;57649;42.968;1.608;2023-08-20T00:52:30;8.57;;;6.63;;
70253;SDS011;57649;42.968;1.608;2023-08-20T00:54:56;13.25;;;6.55;;
70253;SDS011;57649;42.968;1.608;2023-08-20T00:57:22;9.57;;;6.30;;
70253;SDS011;57649;42.968;1.608;2023-08-20T00:59:48;7.03;;;6.30;;
70253;SDS011;57649;42.968;1.608;2023-08-20T01:02:15;8.90;;;6.28;;
70253;SDS011;57649;42.968;1.608;2023-08-20T01:04:42;7.82;;;6.25;;
70253;SDS011;57649;42.968;1.608;2023-08-20T01:12:29;8.75;;;6.18;;
70253;SDS011;57649;42.968;1.608;2023-08-20T01:14:57;7.80;;;6.18;;
70253;SDS011;57649;42.968;1.608;2023-08-20T01:17:23;8.68;;;6.88;;
70253;SDS011;57649;42.968;1.608;2023-08-20T01:19:48;7.15;;;6.18;;
70253;SDS011;57649;42.968;1.608;2023-08-20T01:25:18;10.27;;;7.10;;
70253;SDS011;57649;42.968;1.608;2023-08-20T01:28:05;10.27;;;7.07;;
70253;SDS011;57649;42.968;1.608;2023-08-20T01:30:52;8.15;;;6.68;;
70253;SDS011;57649;42.968;1.608;2023-08-20T01:33:19;8.55;;;6.80;;
70253;SDS011;57649;42.968;1.608;2023-08-20T01:35:45;8.35;;;6.20;;
70253;SDS011;57649;42.968;1.608;2023-08-20T01:38:10;9.82;;;6.57;;
70253;SDS011;57649;42.968;1.608;2023-08-20T01:40:36;9.48;;;6.45;;
70253;SDS011;57649;42.968;1.608;2023-08-20T01:43:01;11.93;;;6.43;;
70253;SDS011;57649;42.968;1.608;2023-08-20T01:45:27;12.27;;;6.80;;
70253;SDS011;57649;42.968;1.608;2023-08-20T01:47:52;9.85;;;6.60;;
70253;SDS011;57649;42.968;1.608;2023-08-20T01:50:18;10.73;;;7.00;;
70253;SDS011;57649;42.968;1.608;2023-08-20T01:52:44;10.48;;;7.25;;
70253;SDS011;57649;42.968;1.608;2023-08-20T01:55:09;9.65;;;6.68;;
70253;SDS011;57649;42.968;1.608;2023-08-20T01:57:35;11.65;;;7.07;;
70253;SDS011;57649;42.968;1.608;2023-08-20T02:00:01;9.02;;;6.32;;
70253;SDS011;57649;42.968;1.608;2023-08-20T02:02:30;9.07;;;6.45;;
70253;SDS011;57649;42.968;1.608;2023-08-20T02:04:55;10.52;;;7.00;;
70253;SDS011;57649;42.968;1.608;2023-08-20T02:07:20;9.55;;;6.70;;
70253;SDS011;57649;42.968;1.608;2023-08-20T02:09:46;7.75;;;6.53;;
70253;SDS011;57649;42.968;1.608;2023-08-20T02:12:11;10.38;;;6.78;;
70253;SDS011;57649;42.968;1.608;2023-08-20T02:14:37;8.07;;;6.68;;
70253;SDS011;57649;42.968;1.608;2023-08-20T02:17:02;9.70;;;7.00;;
70253;SDS011;57649;42.968;1.608;2023-08-20T02:19:28;7.20;;;6.35;;
70253;SDS011;57649;42.968;1.608;2023-08-20T02:21:54;9.23;;;6.63;;
70253;SDS011;57649;42.968;1.608;2023-08-20T02:24:19;8.98;;;6.95;;
70253;SDS011;57649;42.968;1.608;2023-08-20T02:26:45;9.63;;;7.07;;
70253;SDS011;57649;42.968;1.608;2023-08-20T02:29:10;10.32;;;6.35;;
70253;SDS011;57649;42.968;1.608;2023-08-20T02:31:36;8.68;;;6.55;;
70253;SDS011;57649;42.968;1.608;2023-08-20T02:34:01;8.98;;;6.85;;
70253;SDS011;57649;42.968;1.608;2023-08-20T02:36:27;8.75;;;6.38;;
70253;SDS011;57649;42.968;1.608;2023-08-20T02:38:52;10.40;;;7.07;;
70253;SDS011;57649;42.968;1.608;2023-08-20T02:41:18;13.35;;;7.20;;
70253;SDS011;57649;42.968;1.608;2023-08-20T02:43:44;12.23;;;6.70;;
70253;SDS011;57649;42.968;1.608;2023-08-20T02:46:09;10.10;;;7.25;;
70253;SDS011;57649;42.968;1.608;2023-08-20T02:48:35;10.73;;;6.97;;
70253;SDS011;57649;42.968;1.608;2023-08-20T02:51:00;10.25;;;7.13;;
70253;SDS011;57649;42.968;1.608;2023-08-20T02:53:25;10.73;;;6.63;;
70253;SDS011;57649;42.968;1.608;2023-08-20T02:55:51;9.07;;;6.40;;
70253;SDS011;57649;42.968;1.608;2023-08-20T02:58:16;10.50;;;6.45;;
70253;SDS011;57649;42.968;1.608;2023-08-20T03:00:42;10.07;;;6.97;;
70253;SDS011;57649;42.968;1.608;2023-08-20T03:03:10;7.95;;;6.68;;
70253;SDS011;57649;42.968;1.608;2023-08-20T03:05:35;7.80;;;6.32;;
70253;SDS011;57649;42.968;1.608;2023-08-20T03:08:01;9.18;;;6.53;;
70253;SDS011;57649;42.968;1.608;2023-08-20T03:10:28;9.57;;;6.90;;
70253;SDS011;57649;42.968;1.608;2023-08-20T03:12:55;11.88;;;6.97;;
70253;SDS011;57649;42.968;1.608;2023-08-20T03:15:20;8.40;;;6.53;;
70253;SDS011;57649;42.968;1.608;2023-08-20T03:17:45;8.35;;;6.82;;
70253;SDS011;57649;42.968;1.608;2023-08-20T03:20:11;6.82;;;6.13;;
70253;SDS011;57649;42.968;1.608;2023-08-20T03:22:37;10.35;;;5.95;;
70253;SDS011;57649;42.968;1.608;2023-08-20T03:25:03;12.30;;;5.97;;
70253;SDS011;57649;42.968;1.608;2023-08-20T03:27:29;9.27;;;6.38;;
70253;SDS011;57649;42.968;1.608;2023-08-20T03:29:54;9.50;;;7.30;;
70253;SDS011;57649;42.968;1.608;2023-08-20T03:32:20;9.95;;;6.43;;
70253;SDS011;57649;42.968;1.608;2023-08-20T03:34:45;14.90;;;7.15;;
70253;SDS011;57649;42.968;1.608;2023-08-20T03:37:11;7.15;;;6.45;;
70253;SDS011;57649;42.968;1.608;2023-08-20T03:39:37;9.68;;;7.03;;
70253;SDS011;57649;42.968;1.608;2023-08-20T03:42:02;8.15;;;6.40;;
70253;SDS011;57649;42.968;1.608;2023-08-20T03:44:28;7.97;;;6.13;;
70253;SDS011;57649;42.968;1.608;2023-08-20T03:46:54;12.30;;;7.10;;
70253;SDS011;57649;42.968;1.608;2023-08-20T03:49:20;10.43;;;6.47;;
70253;SDS011;57649;42.968;1.608;2023-08-20T03:51:45;8.52;;;5.93;;
70253;SDS011;57649;42.968;1.608;2023-08-20T03:54:11;8.40;;;6.47;;
70253;SDS011;57649;42.968;1.608;2023-08-20T03:56:36;10.55;;;6.47;;
70253;SDS011;57649;42.968;1.608;2023-08-20T03:59:01;10.77;;;6.60;;
70253;SDS011;57649;42.968;1.608;2023-08-20T04:01:27;10.13;;;6.80;;
70253;SDS011;57649;42.968;1.608;2023-08-20T04:03:53;7.68;;;6.25;;
70253;SDS011;57649;42.968;1.608;2023-08-20T04:06:18;10.43;;;6.57;;
70253;SDS011;57649;42.968;1.608;2023-08-20T04:08:43;11.40;;;6.78;;
70253;SDS011;57649;42.968;1.608;2023-08-20T04:11:09;8.25;;;6.53;;
70253;SDS011;57649;42.968;1.608;2023-08-20T04:13:34;8.38;;;6.63;;
70253;SDS011;57649;42.968;1.608;2023-08-20T04:16:00;12.15;;;7.10;;
70253;SDS011;57649;42.968;1.608;2023-08-20T04:18:25;7.93;;;6.90;;
70253;SDS011;57649;42.968;1.608;2023-08-20T04:20:51;7.25;;;6.32;;
70253;SDS011;57649;42.968;1.608;2023-08-20T04:23:17;10.18;;;7.03;;
70253;SDS011;57649;42.968;1.608;2023-08-20T04:25:43;7.53;;;6.40;;
70253;SDS011;57649;42.968;1.608;2023-08-20T04:28:10;10.82;;;7.05;;
70253;SDS011;57649;42.968;1.608;2023-08-20T04:30:35;9.07;;;7.10;;
70253;SDS011;57649;42.968;1.608;2023-08-20T04:33:01;11.20;;;6.95;;
70253;SDS011;57649;42.968;1.608;2023-08-20T04:35:27;11.30;;;6.80;;
70253;SDS011;57649;42.968;1.608;2023-08-20T04:37:52;9.75;;;6.57;;
70253;SDS011;57649;42.968;1.608;2023-08-20T04:40:17;11.82;;;6.82;;
70253;SDS011;57649;42.968;1.608;2023-08-20T04:42:43;8.23;;;6.82;;
70253;SDS011;57649;42.968;1.608;2023-08-20T04:45:08;8.52;;;6.53;;
70253;SDS011;57649;42.968;1.608;2023-08-20T04:47:35;14.25;;;7.45;;
70253;SDS011;57649;42.968;1.608;2023-08-20T04:50:00;9.88;;;6.75;;
70253;SDS011;57649;42.968;1.608;2023-08-20T04:52:26;10.50;;;6.75;;
70253;SDS011;57649;42.968;1.608;2023-08-20T04:54:51;12.45;;;7.35;;
70253;SDS011;57649;42.968;1.608;2023-08-20T04:57:17;8.00;;;6.63;;
70253;SDS011;57649;42.968;1.608;2023-08-20T04:59:42;9.68;;;6.63;;
70253;SDS011;57649;42.968;1.608;2023-08-20T05:02:10;11.88;;;6.80;;
70253;SDS011;57649;42.968;1.608;2023-08-20T05:04:37;8.55;;;7.00;;
70253;SDS011;57649;42.968;1.608;2023-08-20T05:07:03;9.68;;;7.18;;
70253;SDS011;57649;42.968;1.608;2023-08-20T05:09:28;11.73;;;7.07;;
70253;SDS011;57649;42.968;1.608;2023-08-20T05:11:54;9.35;;;6.60;;
70253;SDS011;57649;42.968;1.608;2023-08-20T05:14:19;7.93;;;6.45;;
70253;SDS011;57649;42.968;1.608;2023-08-20T05:16:46;9.52;;;7.00;;
70253;SDS011;57649;42.968;1.608;2023-08-20T05:19:11;8.40;;;6.70;;
70253;SDS011;57649;42.968;1.608;2023-08-20T05:21:36;9.10;;;7.07;;
70253;SDS011;57649;42.968;1.608;2023-08-20T05:24:02;10.65;;;6.40;;
70253;SDS011;57649;42.968;1.608;2023-08-20T05:26:28;10.77;;;6.68;;
70253;SDS011;57649;42.968;1.608;2023-08-20T05:28:53;11.75;;;7.20;;
70253;SDS011;57649;42.968;1.608;2023-08-20T05:31:19;11.55;;;6.63;;
70253;SDS011;57649;42.968;1.608;2023-08-20T05:33:44;9.98;;;7.28;;
70253;SDS011;57649;42.968;1.608;2023-08-20T05:36:09;11.85;;;6.97;;
70253;SDS011;57649;42.968;1.608;2023-08-20T05:38:35;7.95;;;7.10;;
70253;SDS011;57649;42.968;1.608;2023-08-20T05:41:00;8.27;;;6.72;;
70253;SDS011;57649;42.968;1.608;2023-08-20T05:43:25;8.85;;;7.40;;
70253;SDS011;57649;42.968;1.608;2023-08-20T05:45:51;9.00;;;7.20;;
70253;SDS011;57649;42.968;1.608;2023-08-20T05:48:16;10.77;;;6.80;;
70253;SDS011;57649;42.968;1.608;2023-08-20T05:50:42;9.43;;;7.35;;
70253;SDS011;57649;42.968;1.608;2023-08-20T05:53:07;7.85;;;6.38;;
70253;SDS011;57649;42.968;1.608;2023-08-20T05:55:32;8.82;;;7.05;;
70253;SDS011;57649;42.968;1.608;2023-08-20T05:57:58;12.82;;;6.60;;
70253;SDS011;57649;42.968;1.608;2023-08-20T06:00:23;9.00;;;6.60;;
70253;SDS011;57649;42.968;1.608;2023-08-20T06:02:49;8.68;;;6.40;;
70253;SDS011;57649;42.968;1.608;2023-08-20T06:05:14;8.07;;;7.25;;
70253;SDS011;57649;42.968;1.608;2023-08-20T06:07:39;9.35;;;6.95;;
70253;SDS011;57649;42.968;1.608;2023-08-20T06:10:06;11.05;;;7.10;;
70253;SDS011;57649;42.968;1.608;2023-08-20T06:12:32;9.23;;;6.82;;
70253;SDS011;57649;42.968;1.608;2023-08-20T06:14:57;7.70;;;6.85;;
70253;SDS011;57649;42.968;1.608;2023-08-20T06:17:23;11.90;;;6.30;;
70253;SDS011;57649;42.968;1.608;2023-08-20T06:19:48;8.85;;;6.70;;
70253;SDS011;57649;42.968;1.608;2023-08-20T06:22:14;9.23;;;6.68;;
70253;SDS011;57649;42.968;1.608;2023-08-20T06:24:39;10.30;;;6.72;;
70253;SDS011;57649;42.968;1.608;2023-08-20T06:27:05;9.55;;;6.50;;
70253;SDS011;57649;42.968;1.608;2023-08-20T06:29:30;8.23;;;6.00;;
70253;SDS011;57649;42.968;1.608;2023-08-20T06:31:56;9.23;;;6.30;;
70253;SDS011;57649;42.968;1.608;2023-08-20T06:34:21;10.85;;;6.32;;
70253;SDS011;57649;42.968;1.608;2023-08-20T06:36:47;9.35;;;6.00;;
70253;SDS011;57649;42.968;1.608;2023-08-20T06:39:13;8.43;;;6.60;;
70253;SDS011;57649;42.968;1.608;2023-08-20T06:41:40;8.30;;;6.50;;
70253;SDS011;57649;42.968;1.608;2023-08-20T06:44:06;8.65;;;6.65;;
70253;SDS011;57649;42.968;1.608;2023-08-20T06:46:31;9.23;;;6.63;;
70253;SDS011;57649;42.968;1.608;2023-08-20T06:48:56;9.60;;;6.32;;
70253;SDS011;57649;42.968;1.608;2023-08-20T06:51:22;8.65;;;6.32;;
70253;SDS011;57649;42.968;1.608;2023-08-20T06:53:47;8.07;;;6.22;;
70253;SDS011;57649;42.968;1.608;2023-08-20T06:56:13;8.13;;;6.22;;
70253;SDS011;57649;42.968;1.608;2023-08-20T06:58:39;9.88;;;6.30;;
70253;SDS011;57649;42.968;1.608;2023-08-20T07:01:06;7.53;;;5.60;;
70253;SDS011;57649;42.968;1.608;2023-08-20T07:03:35;11.50;;;6.38;;
70253;SDS011;57649;42.968;1.608;2023-08-20T07:06:02;6.57;;;5.78;;
70253;SDS011;57649;42.968;1.608;2023-08-20T07:08:28;9.60;;;6.30;;
70253;SDS011;57649;42.968;1.608;2023-08-20T07:10:53;13.10;;;6.38;;
70253;SDS011;57649;42.968;1.608;2023-08-20T07:13:19;9.55;;;6.38;;
70253;SDS011;57649;42.968;1.608;2023-08-20T07:15:44;10.10;;;6.05;;
70253;SDS011;57649;42.968;1.608;2023-08-20T07:18:09;7.97;;;6.05;;
70253;SDS011;57649;42.968;1.608;2023-08-20T07:20:38;8.23;;;5.72;;
70253;SDS011;57649;42.968;1.608;2023-08-20T07:23:04;9.15;;;6.10;;
70253;SDS011;57649;42.968;1.608;2023-08-20T07:25:29;7.68;;;5.65;;
70253;SDS011;57649;42.968;1.608;2023-08-20T07:27:54;11.95;;;5.85;;
70253;SDS011;57649;42.968;1.608;2023-08-20T07:30:24;9.13;;;5.53;;
70253;SDS011;57649;42.968;1.608;2023-08-20T07:32:50;7.65;;;5.72;;
70253;SDS011;57649;42.968;1.608;2023-08-20T07:35:15;8.75;;;6.25;;
70253;SDS011;57649;42.968;1.608;2023-08-20T07:37:40;11.75;;;5.82;;
70253;SDS011;57649;42.968;1.608;2023-08-20T07:40:06;7.78;;;6.10;;
70253;SDS011;57649;42.968;1.608;2023-08-20T07:42:32;8.30;;;5.53;;
70253;SDS011;57649;42.968;1.608;2023-08-20T07:44:57;8.02;;;5.75;;
70253;SDS011;57649;42.968;1.608;2023-08-20T07:47:23;7.00;;;5.68;;
70253;SDS011;57649;42.968;1.608;2023-08-20T07:49:48;7.90;;;5.60;;
70253;SDS011;57649;42.968;1.608;2023-08-20T07:52:14;6.55;;;5.35;;
70253;SDS011;57649;42.968;1.608;2023-08-20T07:54:39;9.52;;;5.95;;
70253;SDS011;57649;42.968;1.608;2023-08-20T07:57:04;9.40;;;6.28;;
70253;SDS011;57649;42.968;1.608;2023-08-20T07:59:30;11.43;;;6.05;;
70253;SDS011;57649;42.968;1.608;2023-08-20T08:01:55;6.70;;;5.57;;
70253;SDS011;57649;42.968;1.608;2023-08-20T08:04:20;8.70;;;5.80;;
70253;SDS011;57649;42.968;1.608;2023-08-20T08:06:46;8.32;;;5.90;;
70253;SDS011;57649;42.968;1.608;2023-08-20T08:09:19;8.23;;;5.88;;
70253;SDS011;57649;42.968;1.608;2023-08-20T08:11:51;9.98;;;5.80;;
70253;SDS011;57649;42.968;1.608;2023-08-20T08:14:17;7.90;;;5.93;;
70253;SDS011;57649;42.968;1.608;2023-08-20T08:16:42;8.02;;;5.30;;
70253;SDS011;57649;42.968;1.608;2023-08-20T08:19:09;9.23;;;5.22;;
70253;SDS011;57649;42.968;1.608;2023-08-20T08:21:34;9.70;;;5.70;;
70253;SDS011;57649;42.968;1.608;2023-08-20T08:24:00;9.63;;;5.70;;
70253;SDS011;57649;42.968;1.608;2023-08-20T08:26:25;6.50;;;4.80;;
70253;SDS011;57649;42.968;1.608;2023-08-20T08:28:51;6.53;;;5.00;;
70253;SDS011;57649;42.968;1.608;2023-08-20T08:31:16;8.25;;;5.30;;
70253;SDS011;57649;42.968;1.608;2023-08-20T08:33:41;6.97;;;5.05;;
70253;SDS011;57649;42.968;1.608;2023-08-20T08:36:07;9.30;;;5.07;;
70253;SDS011;57649;42.968;1.608;2023-08-20T08:38:32;7.75;;;5.03;;
70253;SDS011;57649;42.968;1.608;2023-08-20T08:40:57;7.38;;;5.03;;
70253;SDS011;57649;42.968;1.608;2023-08-20T08:43:25;9.02;;;4.90;;
70253;SDS011;57649;42.968;1.608;2023-08-20T08:45:53;8.00;;;4.25;;
70253;SDS011;57649;42.968;1.608;2023-08-20T08:48:20;8.93;;;4.90;;
70253;SDS011;57649;42.968;1.608;2023-08-20T08:50:46;7.85;;;4.70;;
70253;SDS011;57649;42.968;1.608;2023-08-20T08:53:13;6.72;;;4.53;;
70253;SDS011;57649;42.968;1.608;2023-08-20T08:55:38;9.57;;;4.68;;
70253;SDS011;57649;42.968;1.608;2023-08-20T08:58:04;6.95;;;4.53;;
70253;SDS011;57649;42.968;1.608;2023-08-20T09:00:29;7.78;;;4.18;;
70253;SDS011;57649;42.968;1.608;2023-08-20T09:02:57;6.70;;;4.53;;
70253;SDS011;57649;42.968;1.608;2023-08-20T09:05:23;5.72;;;4.13;;
70253;SDS011;57649;42.968;1.608;2023-08-20T09:07:49;6.38;;;4.45;;
70253;SDS011;57649;42.968;1.608;2023-08-20T09:10:21;8.07;;;4.88;;
70253;SDS011;57649;42.968;1.608;2023-08-20T09:12:47;5.20;;;4.25;;
70253;SDS011;57649;42.968;1.608;2023-08-20T09:15:13;6.60;;;4.22;;
70253;SDS011;57649;42.968;1.608;2023-08-20T09:17:40;8.98;;;4.53;;
70253;SDS011;57649;42.968;1.608;2023-08-20T09:20:07;8.77;;;4.82;;
70253;SDS011;57649;42.968;1.608;2023-08-20T09:22:33;5.95;;;4.35;;
70253;SDS011;57649;42.968;1.608;2023-08-20T09:25:00;6.22;;;4.53;;
70253;SDS011;57649;42.968;1.608;2023-08-20T09:27:27;6.95;;;4.72;;
70253;SDS011;57649;42.968;1.608;2023-08-20T09:29:54;9.27;;;4.50;;
70253;SDS011;57649;42.968;1.608;2023-08-20T09:32:24;10.90;;;4.82;;
70253;SDS011;57649;42.968;1.608;2023-08-20T09:34:52;11.55;;;4.97;;
70253;SDS011;57649;42.968;1.608;2023-08-20T09:37:19;7.07;;;4.18;;
70253;SDS011;57649;42.968;1.608;2023-08-20T09:39:46;9.20;;;4.30;;
70253;SDS011;57649;42.968;1.608;2023-08-20T09:42:12;9.25;;;4.75;;
70253;SDS011;57649;42.968;1.608;2023-08-20T09:44:40;7.45;;;4.32;;
70253;SDS011;57649;42.968;1.608;2023-08-20T09:47:07;9.75;;;6.95;;
70253;SDS011;57649;42.968;1.608;2023-08-20T09:49:37;8.65;;;4.03;;
70253;SDS011;57649;42.968;1.608;2023-08-20T09:52:06;6.60;;;4.75;;
70253;SDS011;57649;42.968;1.608;2023-08-20T09:57:27;12.98;;;6.35;;
70253;SDS011;57649;42.968;1.608;2023-08-20T10:00:01;11.45;;;6.00;;
70253;SDS011;57649;42.968;1.608;2023-08-20T10:02:30;7.97;;;4.25;;
70253;SDS011;57649;42.968;1.608;2023-08-20T10:04:57;11.48;;;4.95;;
70253;SDS011;57649;42.968;1.608;2023-08-20T10:07:26;9.40;;;4.50;;
70253;SDS011;57649;42.968;1.608;2023-08-20T10:09:56;7.10;;;4.30;;
70253;SDS011;57649;42.968;1.608;2023-08-20T10:14:51;5.93;;;4.03;;
70253;SDS011;57649;42.968;1.608;2023-08-20T10:17:16;9.05;;;4.07;;
70253;SDS011;57649;42.968;1.608;2023-08-20T10:19:42;10.55;;;4.65;;
70253;SDS011;57649;42.968;1.608;2023-08-20T10:22:08;8.27;;;4.03;;
70253;SDS011;57649;42.968;1.608;2023-08-20T10:24:50;7.20;;;4.13;;
70253;SDS011;57649;42.968;1.608;2023-08-20T10:27:26;8.02;;;4.20;;
70253;SDS011;57649;42.968;1.608;2023-08-20T10:29:54;14.05;;;4.22;;
70253;SDS011;57649;42.968;1.608;2023-08-20T10:32:20;10.13;;;4.40;;
70253;SDS011;57649;42.968;1.608;2023-08-20T10:35:06;11.65;;;4.55;;
70253;SDS011;57649;42.968;1.608;2023-08-20T10:37:32;8.07;;;4.30;;
70253;SDS011;57649;42.968;1.608;2023-08-20T10:39:57;7.15;;;3.85;;
70253;SDS011;57649;42.968;1.608;2023-08-20T10:42:26;11.13;;;4.90;;
70253;SDS011;57649;42.968;1.608;2023-08-20T10:47:43;7.32;;;3.80;;
70253;SDS011;57649;42.968;1.608;2023-08-20T10:52:39;9.88;;;4.20;;
70253;SDS011;57649;42.968;1.608;2023-08-20T10:55:14;9.57;;;4.32;;
70253;SDS011;57649;42.968;1.608;2023-08-20T10:57:41;8.32;;;4.28;;
70253;SDS011;57649;42.968;1.608;2023-08-20T11:00:07;7.47;;;3.92;;
70253;SDS011;57649;42.968;1.608;2023-08-20T11:02:40;7.63;;;4.25;;
70253;SDS011;57649;42.968;1.608;2023-08-20T11:05:19;7.07;;;3.70;;
70253;SDS011;57649;42.968;1.608;2023-08-20T11:07:48;10.50;;;4.35;;
70253;SDS011;57649;42.968;1.608;2023-08-20T11:10:14;9.13;;;5.25;;
70253;SDS011;57649;42.968;1.608;2023-08-20T11:12:41;6.60;;;4.07;;
70253;SDS011;57649;42.968;1.608;2023-08-20T11:15:10;9.13;;;4.10;;
70253;SDS011;57649;42.968;1.608;2023-08-20T11:17:40;7.75;;;4.35;;
70253;SDS011;57649;42.968;1.608;2023-08-20T11:20:07;8.30;;;4.32;;
70253;SDS011;57649;42.968;1.608;2023-08-20T11:22:32;8.20;;;3.83;;
70253;SDS011;57649;42.968;1.608;2023-08-20T11:24:59;9.82;;;4.50;;
70253;SDS011;57649;42.968;1.608;2023-08-20T11:27:27;7.53;;;4.13;;
70253;SDS011;57649;42.968;1.608;2023-08-20T11:29:53;9.68;;;3.97;;
70253;SDS011;57649;42.968;1.608;2023-08-20T11:32:21;9.27;;;3.80;;
70253;SDS011;57649;42.968;1.608;2023-08-20T11:34:48;10.10;;;4.38;;
70253;SDS011;57649;42.968;1.608;2023-08-20T11:37:17;13.20;;;4.82;;
70253;SDS011;57649;42.968;1.608;2023-08-20T11:39:43;7.03;;;4.28;;
70253;SDS011;57649;42.968;1.608;2023-08-20T11:42:09;6.90;;;3.28;;
70253;SDS011;57649;42.968;1.608;2023-08-20T11:44:43;5.90;;;3.67;;
70253;SDS011;57649;42.968;1.608;2023-08-20T11:47:13;8.35;;;4.10;;
70253;SDS011;57649;42.968;1.608;2023-08-20T11:49:40;6.45;;;3.70;;
70253;SDS011;57649;42.968;1.608;2023-08-20T11:52:06;9.77;;;3.75;;
70253;SDS011;57649;42.968;1.608;2023-08-20T11:54:31;9.15;;;4.10;;
70253;SDS011;57649;42.968;1.608;2023-08-20T11:57:01;11.52;;;3.70;;
70253;SDS011;57649;42.968;1.608;2023-08-20T11:59:28;8.98;;;4.15;;
70253;SDS011;57649;42.968;1.608;2023-08-20T12:01:58;11.65;;;4.15;;
70253;SDS011;57649;42.968;1.608;2023-08-20T12:04:26;13.20;;;4.22;;
70253;SDS011;57649;42.968;1.608;2023-08-20T12:07:05;7.00;;;4.05;;
70253;SDS011;57649;42.968;1.608;2023-08-20T12:09:31;7.80;;;3.70;;
70253;SDS011;57649;42.968;1.608;2023-08-20T12:11:57;9.70;;;4.47;;
70253;SDS011;57649;42.968;1.608;2023-08-20T12:14:23;7.78;;;4.03;;
70253;SDS011;57649;42.968;1.608;2023-08-20T12:16:49;10.82;;;4.20;;
70253;SDS011;57649;42.968;1.608;2023-08-20T12:19:18;8.70;;;3.67;;
70253;SDS011;57649;42.968;1.608;2023-08-20T12:21:43;6.53;;;4.22;;
70253;SDS011;57649;42.968;1.608;2023-08-20T12:24:09;9.13;;;4.10;;
70253;SDS011;57649;42.968;1.608;2023-08-20T12:26:38;6.13;;;3.78;;
70253;SDS011;57649;42.968;1.608;2023-08-20T12:29:04;11.07;;;3.90;;
70253;SDS011;57649;42.968;1.608;2023-08-20T12:31:30;7.32;;;3.85;;
70253;SDS011;57649;42.968;1.608;2023-08-20T12:33:56;7.00;;;4.22;;
70253;SDS011;57649;42.968;1.608;2023-08-20T12:36:21;10.73;;;4.00;;
70253;SDS011;57649;42.968;1.608;2023-08-20T12:38:47;10.40;;;4.03;;
70253;SDS011;57649;42.968;1.608;2023-08-20T12:41:12;7.43;;;3.83;;
70253;SDS011;57649;42.968;1.608;2023-08-20T12:43:38;8.48;;;4.03;;
70253;SDS011;57649;42.968;1.608;2023-08-20T12:46:03;6.47;;;4.05;;
70253;SDS011;57649;42.968;1.608;2023-08-20T12:48:28;6.03;;;3.80;;
70253;SDS011;57649;42.968;1.608;2023-08-20T12:50:54;10.13;;;4.00;;
70253;SDS011;57649;42.968;1.608;2023-08-20T12:53:20;7.10;;;4.05;;
70253;SDS011;57649;42.968;1.608;2023-08-20T12:55:46;6.80;;;3.80;;
70253;SDS011;57649;42.968;1.608;2023-08-20T12:58:11;7.85;;;4.35;;
70253;SDS011;57649;42.968;1.608;2023-08-20T13:00:37;11.38;;;4.15;;
70253;SDS011;57649;42.968;1.608;2023-08-20T13:03:03;10.43;;;3.83;;
70253;SDS011;57649;42.968;1.608;2023-08-20T13:05:29;10.25;;;4.03;;
70253;SDS011;57649;42.968;1.608;2023-08-20T13:07:55;10.32;;;4.50;;
70253;SDS011;57649;42.968;1.608;2023-08-20T13:10:21;10.30;;;4.18;;
70253;SDS011;57649;42.968;1.608;2023-08-20T13:12:51;10.32;;;3.88;;
70253;SDS011;57649;42.968;1.608;2023-08-20T13:15:19;7.97;;;3.42;;
70253;SDS011;57649;42.968;1.608;2023-08-20T13:17:46;7.57;;;4.10;;
70253;SDS011;57649;42.968;1.608;2023-08-20T13:20:13;7.97;;;4.07;;
70253;SDS011;57649;42.968;1.608;2023-08-20T13:22:39;9.38;;;3.38;;
70253;SDS011;57649;42.968;1.608;2023-08-20T13:25:04;8.98;;;3.60;;
70253;SDS011;57649;42.968;1.608;2023-08-20T13:27:30;8.00;;;4.63;;
70253;SDS011;57649;42.968;1.608;2023-08-20T13:29:56;9.30;;;3.47;;
70253;SDS011;57649;42.968;1.608;2023-08-20T13:32:21;7.05;;;3.90;;
70253;SDS011;57649;42.968;1.608;2023-08-20T13:34:47;7.22;;;4.00;;
70253;SDS011;57649;42.968;1.608;2023-08-20T13:37:14;10.93;;;4.00;;
70253;SDS011;57649;42.968;1.608;2023-08-20T13:39:39;8.85;;;3.67;;
70253;SDS011;57649;42.968;1.608;2023-08-20T13:42:04;9.80;;;3.83;;
70253;SDS011;57649;42.968;1.608;2023-08-20T13:44:30;11.35;;;3.95;;
70253;SDS011;57649;42.968;1.608;2023-08-20T13:46:55;8.27;;;4.22;;
70253;SDS011;57649;42.968;1.608;2023-08-20T13:49:21;7.32;;;3.35;;
70253;SDS011;57649;42.968;1.608;2023-08-20T13:51:46;7.72;;;3.90;;
70253;SDS011;57649;42.968;1.608;2023-08-20T13:54:11;6.90;;;3.90;;
70253;SDS011;57649;42.968;1.608;2023-08-20T13:56:37;7.43;;;3.90;;
70253;SDS011;57649;42.968;1.608;2023-08-20T13:59:02;6.75;;;3.65;;
70253;SDS011;57649;42.968;1.608;2023-08-20T14:01:28;6.70;;;4.13;;
70253;SDS011;57649;42.968;1.608;2023-08-20T14:03:53;9.73;;;3.92;;
70253;SDS011;57649;42.968;1.608;2023-08-20T14:06:19;9.85;;;4.00;;
70253;SDS011;57649;42.968;1.608;2023-08-20T14:08:44;8.98;;;3.67;;
70253;SDS011;57649;42.968;1.608;2023-08-20T14:11:10;9.73;;;3.90;;
70253;SDS011;57649;42.968;1.608;2023-08-20T14:13:35;5.95;;;3.70;;
70253;SDS011;57649;42.968;1.608;2023-08-20T14:16:01;7.20;;;3.70;;
70253;SDS011;57649;42.968;1.608;2023-08-20T14:18:27;14.77;;;4.32;;
70253;SDS011;57649;42.968;1.608;2023-08-20T14:20:52;9.55;;;3.88;;
70253;SDS011;57649;42.968;1.608;2023-08-20T14:23:18;11.57;;;4.30;;
70253;SDS011;57649;42.968;1.608;2023-08-20T14:25:44;10.02;;;4.70;;
70253;SDS011;57649;42.968;1.608;2023-08-20T14:28:09;9.88;;;4.00;;
70253;SDS011;57649;42.968;1.608;2023-08-20T14:30:38;8.15;;;3.88;;
70253;SDS011;57649;42.968;1.608;2023-08-20T14:33:04;11.02;;;4.68;;
70253;SDS011;57649;42.968;1.608;2023-08-20T14:35:30;8.60;;;3.92;;
70253;SDS011;57649;42.968;1.608;2023-08-20T14:37:56;9.38;;;3.97;;
70253;SDS011;57649;42.968;1.608;2023-08-20T14:40:22;8.20;;;3.80;;
70253;SDS011;57649;42.968;1.608;2023-08-20T14:42:48;11.88;;;4.43;;
70253;SDS011;57649;42.968;1.608;2023-08-20T14:45:13;13.35;;;3.90;;
70253;SDS011;57649;42.968;1.608;2023-08-20T14:47:38;6.93;;;3.80;;
70253;SDS011;57649;42.968;1.608;2023-08-20T14:50:05;7.88;;;3.65;;
70253;SDS011;57649;42.968;1.608;2023-08-20T14:52:31;13.60;;;3.97;;
70253;SDS011;57649;42.968;1.608;2023-08-20T14:54:56;7.35;;;3.70;;
70253;SDS011;57649;42.968;1.608;2023-08-20T14:57:22;7.50;;;3.45;;